createdAt,value
2022-10-11T00:00:41.986Z,100778.33
2022-10-11T00:03:14.580Z,100780.97
2022-10-11T00:05:44.117Z,100787.35
2022-10-11T00:08:15.561Z,100795.46
2022-10-11T00:10:46.125Z,100797.42
2022-10-11T00:13:16.775Z,100809.74
2022-10-11T00:15:49.510Z,100808.98
2022-10-11T00:18:20.309Z,100811.70
2022-10-11T00:20:51.033Z,100815.95
2022-10-11T00:23:21.695Z,100818.94
2022-10-11T00:26:01.019Z,100820.08
2022-10-11T00:28:32.377Z,100824.19
2022-10-11T00:31:05.311Z,100834.30
2022-10-11T00:33:36.275Z,100832.89
2022-10-11T00:36:08.978Z,100834.84
2022-10-11T00:38:40.062Z,100837.65
2022-10-11T00:41:11.144Z,100838.02
2022-10-11T00:43:42.211Z,100839.79
2022-10-11T00:46:39.049Z,100836.98
2022-10-11T00:49:18.519Z,100839.55
2022-10-11T00:51:54.460Z,100846.94
2022-10-11T00:54:28.453Z,100849.69
2022-10-11T00:57:04.178Z,100849.69
2022-10-11T00:59:39.349Z,100853.64
2022-10-11T01:02:11.084Z,100856.45
2022-10-11T01:04:42.439Z,100857.42
2022-10-11T01:07:14.191Z,100860.25
2022-10-11T01:09:44.861Z,100863.77
2022-10-11T01:12:19.877Z,100862.67
2022-10-11T01:15:05.375Z,100868.92
2022-10-11T01:17:43.635Z,100870.50
2022-10-11T01:20:33.141Z,100872.86
2022-10-11T01:23:34.492Z,100876.70
2022-10-11T01:26:30.172Z,100879.73
2022-10-11T01:29:13.563Z,100882.62
2022-10-11T01:31:52.382Z,100885.03
2022-10-11T01:34:33.960Z,100886.42
2022-10-11T01:37:12.221Z,100884.81
2022-10-11T01:39:49.444Z,100884.55
2022-10-11T01:42:21.773Z,100884.83
2022-10-11T01:44:53.513Z,100885.48
2022-10-11T01:47:25.264Z,100884.46
2022-10-11T01:50:01.483Z,100889.28
2022-10-11T01:52:37.734Z,100893.23
2022-10-11T01:55:25.680Z,100894.48
2022-10-11T01:58:14.141Z,100900.58
2022-10-11T02:00:52.450Z,100902.48
2022-10-11T02:03:35.139Z,100905.87
2022-10-11T02:06:11.527Z,100906.23
2022-10-11T02:08:51.170Z,100907.27
2022-10-11T02:11:27.055Z,100908.42
2022-10-11T02:14:01.523Z,100913.97
2022-10-11T02:16:40.734Z,100918.74
2022-10-11T02:19:13.581Z,100922.53
2022-10-11T02:21:47.106Z,100923.43
2022-10-11T02:24:23.624Z,100923.91
2022-10-11T02:26:58.192Z,100919.23
2022-10-11T02:29:31.682Z,100922.69
2022-10-11T02:32:03.202Z,100927.31
2022-10-11T02:34:36.616Z,100925.41
2022-10-11T02:37:11.927Z,100924.81
2022-10-11T02:39:46.964Z,100927.63
2022-10-11T02:42:22.193Z,100928.84
2022-10-11T02:45:00.653Z,100927.19
2022-10-11T02:47:32.871Z,100925.14
2022-10-11T02:50:04.121Z,100933.52
2022-10-11T02:52:34.967Z,100942.23
2022-10-11T02:55:06.724Z,100945.91
2022-10-11T02:57:37.319Z,100951.48
2022-10-11T03:00:10.158Z,100955.59
2022-10-11T03:02:40.924Z,100960.19
2022-10-11T03:05:11.974Z,100965.16
2022-10-11T03:07:42.828Z,100973.61
2022-10-11T03:10:13.962Z,100973.05
2022-10-11T03:12:44.710Z,100979.08
2022-10-11T03:15:15.321Z,100978.27
2022-10-11T03:17:46.071Z,100979.11
2022-10-11T03:20:16.639Z,100987.94
2022-10-11T03:22:47.367Z,100992.98
2022-10-11T03:25:18.154Z,100996.70
2022-10-11T03:27:48.870Z,100998.95
2022-10-11T03:30:20.244Z,101002.95
2022-10-11T03:32:50.818Z,101011.73
2022-10-11T03:35:21.916Z,101013.46
2022-10-11T03:37:53.119Z,101016.73
2022-10-11T03:40:23.971Z,101019.39
2022-10-11T03:42:56.480Z,101025.39
2022-10-11T03:45:25.704Z,101022.45
2022-10-11T03:47:56.315Z,101027.05
2022-10-11T03:50:26.948Z,101032.42
2022-10-11T03:52:57.629Z,101037.05
2022-10-11T03:55:28.250Z,101043.10
2022-10-11T03:57:59.041Z,101050.12
2022-10-11T04:00:29.659Z,101050.52
2022-10-11T04:03:00.275Z,101050.35
2022-10-11T04:05:31.331Z,101054.05
2022-10-11T04:08:02.049Z,101054.70
2022-10-11T04:10:32.757Z,101061.48
2022-10-11T04:13:03.398Z,101061.73
2022-10-11T04:15:34.032Z,101063.58
2022-10-11T04:18:04.804Z,101071.25
2022-10-11T04:20:35.751Z,101072.68
2022-10-11T04:23:06.301Z,101075.41
2022-10-11T04:25:38.917Z,101080.77
2022-10-11T04:28:09.734Z,101082.73
2022-10-11T04:30:41.401Z,101092.06
2022-10-11T04:33:12.381Z,101092.71
2022-10-11T04:35:43.080Z,101095.30
2022-10-11T04:38:14.118Z,101099.61
2022-10-11T04:40:44.839Z,101097.17
2022-10-11T04:43:16.907Z,101103.91
2022-10-11T04:45:48.490Z,101105.84
2022-10-11T04:48:21.032Z,101107.33
2022-10-11T04:50:52.431Z,101113.44
2022-10-11T04:53:23.318Z,101111.95
2022-10-11T04:56:01.397Z,101115.59
2022-10-11T04:58:33.378Z,101122.60
2022-10-11T05:01:04.583Z,101127.89
2022-10-11T05:03:35.317Z,101127.48
2022-10-11T05:06:07.389Z,101131.89
2022-10-11T05:08:38.251Z,101136.61
2022-10-11T05:11:14.859Z,101138.55
2022-10-11T05:13:47.253Z,101142.34
2022-10-11T05:16:18.563Z,101147.54
2022-10-11T05:18:49.251Z,101150.94
2022-10-11T05:21:21.860Z,101153.16
2022-10-11T05:23:51.541Z,101159.51
2022-10-11T05:26:23.548Z,101160.08
2022-10-11T05:28:54.271Z,101163.42
2022-10-11T05:31:25.728Z,101164.46
2022-10-11T05:33:56.497Z,101170.95
2022-10-11T05:36:27.174Z,101178.20
2022-10-11T05:38:57.990Z,101183.35
2022-10-11T05:41:29.331Z,101187.11
2022-10-11T05:44:00.138Z,101186.10
2022-10-11T05:46:30.811Z,101189.76
2022-10-11T05:49:01.479Z,101195.98
2022-10-11T05:51:32.458Z,101204.68
2022-10-11T05:54:03.116Z,101212.91
2022-10-11T05:56:33.908Z,101219.05
2022-10-11T05:59:05.520Z,101224.08
2022-10-11T06:01:36.273Z,101224.80
2022-10-11T06:04:08.332Z,101226.92
2022-10-11T06:06:38.924Z,101233.95
2022-10-11T06:09:09.749Z,101236.69
2022-10-11T06:11:42.557Z,101235.67
2022-10-11T06:14:13.278Z,101238.36
2022-10-11T06:16:43.864Z,101240.09
2022-10-11T06:19:14.600Z,101243.73
2022-10-11T06:21:46.731Z,101248.25
2022-10-11T06:24:17.541Z,101250.11
2022-10-11T06:26:49.452Z,101251.59
2022-10-11T06:29:20.101Z,101254.73
2022-10-11T06:31:52.021Z,101256.58
2022-10-11T06:34:22.894Z,101264.94
2022-10-11T06:36:53.511Z,101269.52
2022-10-11T06:39:24.288Z,101270.48
2022-10-11T06:41:55.094Z,101270.91
2022-10-11T06:44:26.658Z,101270.03
2022-10-11T06:46:57.377Z,101271.46
2022-10-11T06:49:28.187Z,101272.48
2022-10-11T06:51:58.871Z,101269.91
2022-10-11T06:54:29.565Z,101277.81
2022-10-11T06:57:01.179Z,101280.11
2022-10-11T06:59:31.825Z,101282.54
2022-10-11T07:02:02.604Z,101278.75
2022-10-11T07:04:34.140Z,101281.17
2022-10-11T07:07:04.823Z,101282.59
2022-10-11T07:09:36.701Z,101285.09
2022-10-11T07:12:08.832Z,101287.66
2022-10-11T07:14:39.423Z,101289.05
2022-10-11T07:17:10.221Z,101292.66
2022-10-11T07:19:41.007Z,101295.48
2022-10-11T07:22:11.716Z,101297.77
2022-10-11T07:24:42.420Z,101297.19
2022-10-11T07:27:12.995Z,101298.58
2022-10-11T07:29:44.127Z,101298.98
2022-10-11T07:32:16.376Z,101300.91
2022-10-11T07:34:47.572Z,101306.35
2022-10-11T07:37:18.174Z,101309.98
2022-10-11T07:39:49.922Z,101305.13
2022-10-11T07:42:22.099Z,101310.61
2022-10-11T07:44:52.835Z,101311.04
2022-10-11T07:47:23.538Z,101313.25
2022-10-11T07:49:54.367Z,101313.05
2022-10-11T07:52:25.166Z,101314.26
2022-10-11T07:54:55.773Z,101317.98
2022-10-11T07:57:26.618Z,101315.84
2022-10-11T07:59:57.200Z,101315.48
2022-10-11T08:02:27.899Z,101316.29
2022-10-11T08:04:58.655Z,101317.56
2022-10-11T08:07:29.786Z,101316.38
2022-10-11T08:10:00.596Z,101315.03
2022-10-11T08:12:31.301Z,101317.02
2022-10-11T08:15:02.744Z,101319.05
2022-10-11T08:17:33.594Z,101315.52
2022-10-11T08:20:04.670Z,101316.73
2022-10-11T08:22:35.423Z,101313.66
2022-10-11T08:25:07.250Z,101316.99
2022-10-11T08:27:37.978Z,101315.13
2022-10-11T08:30:11.423Z,101321.37
2022-10-11T08:32:42.139Z,101322.45
2022-10-11T08:35:13.297Z,101321.87
2022-10-11T08:37:43.965Z,101320.98
2022-10-11T08:40:19.170Z,101316.58
2022-10-11T08:42:54.550Z,101318.77
2022-10-11T08:45:32.246Z,101320.91
2022-10-11T08:48:14.618Z,101320.89
2022-10-11T08:50:48.245Z,101320.66
2022-10-11T08:53:28.317Z,101317.15
2022-10-11T08:55:59.545Z,101323.08
2022-10-11T08:58:39.434Z,101323.88
2022-10-11T09:01:19.295Z,101326.48
2022-10-11T09:03:51.005Z,101323.54
2022-10-11T09:06:38.524Z,101324.37
2022-10-11T09:09:40.151Z,101328.59
2022-10-11T09:12:19.746Z,101325.31
2022-10-11T09:15:04.301Z,101323.69
2022-10-11T09:17:50.017Z,101323.37
2022-10-11T09:20:37.055Z,101324.61
2022-10-11T09:23:18.825Z,101326.65
2022-10-11T09:25:54.459Z,101326.91
2022-10-11T09:28:39.221Z,101328.54
2022-10-11T09:31:13.021Z,101326.82
2022-10-11T09:33:47.063Z,101327.09
2022-10-11T09:36:26.804Z,101325.55
2022-10-11T09:39:06.980Z,101319.96
2022-10-11T09:41:44.158Z,101325.48
2022-10-11T09:44:20.983Z,101326.39
2022-10-11T09:46:52.844Z,101322.96
2022-10-11T09:49:29.662Z,101322.01
2022-10-11T09:52:03.389Z,101322.54
2022-10-11T09:54:45.836Z,101321.62
2022-10-11T09:57:27.767Z,101326.00
2022-10-11T10:00:05.882Z,101329.32
2022-10-11T10:02:47.535Z,101333.33
2022-10-11T10:05:22.325Z,101328.20
2022-10-11T10:08:23.759Z,101322.52
2022-10-11T10:11:04.103Z,101320.74
2022-10-11T10:13:44.079Z,101321.13
2022-10-11T10:16:25.230Z,101322.71
2022-10-11T10:18:58.624Z,101325.08
2022-10-11T10:21:34.800Z,101332.31
2022-10-11T10:24:09.849Z,101335.80
2022-10-11T10:26:41.088Z,101341.42
2022-10-11T10:29:20.248Z,101337.98
2022-10-11T10:32:15.025Z,101336.14
2022-10-11T10:34:58.239Z,101334.70
2022-10-11T10:37:34.603Z,101337.10
2022-10-11T10:40:10.187Z,101336.08
2022-10-11T10:42:41.132Z,101338.63
2022-10-11T10:45:21.609Z,101340.74
2022-10-11T10:48:11.827Z,101338.48
2022-10-11T10:50:55.859Z,101340.20
2022-10-11T10:53:34.246Z,101338.31
2022-10-11T10:56:11.561Z,101337.13
2022-10-11T10:58:59.087Z,101335.48
2022-10-11T11:01:32.841Z,101334.14
2022-10-11T11:04:11.533Z,101334.54
2022-10-11T11:06:49.936Z,101335.02
2022-10-11T11:09:37.627Z,101333.77
2022-10-11T11:12:21.328Z,101330.55
2022-10-11T11:15:03.544Z,101329.73
2022-10-11T11:17:53.118Z,101332.80
2022-10-11T11:20:45.217Z,101338.52
2022-10-11T11:23:23.504Z,101334.45
2022-10-11T11:26:02.561Z,101332.55
2022-10-11T11:28:58.517Z,101325.33
2022-10-11T11:31:52.712Z,101326.83
2022-10-11T11:34:27.738Z,101326.11
2022-10-11T11:37:02.530Z,101326.23
2022-10-11T11:39:37.656Z,101323.38
2022-10-11T11:42:13.415Z,101325.11
2022-10-11T11:44:47.121Z,101328.35
2022-10-11T11:47:24.310Z,101329.25
2022-10-11T11:49:59.943Z,101322.52
2022-10-11T11:52:35.147Z,101326.14
2022-10-11T11:55:12.232Z,101327.41
2022-10-11T11:58:07.231Z,101326.74
2022-10-11T12:00:50.221Z,101324.14
2022-10-11T12:03:26.356Z,101322.27
2022-10-11T12:06:23.005Z,101318.96
2022-10-11T12:09:03.755Z,101318.98
2022-10-11T12:11:43.514Z,101313.70
2022-10-11T12:14:29.541Z,101312.30
2022-10-11T12:17:13.958Z,101310.61
2022-10-11T12:20:02.755Z,101311.30
2022-10-11T12:22:54.716Z,101309.31
2022-10-11T12:25:45.145Z,101310.80
2022-10-11T12:28:50.843Z,101310.52
2022-10-11T12:31:25.557Z,101307.20
2022-10-11T12:34:18.711Z,101304.36
2022-10-11T12:36:51.040Z,101304.41
2022-10-11T12:39:45.719Z,101305.80
2022-10-11T12:42:29.374Z,101299.79
2022-10-11T12:45:33.605Z,101299.63
2022-10-11T12:48:18.658Z,101294.13
2022-10-11T12:51:02.228Z,101289.52
2022-10-11T12:54:14.391Z,101291.35
2022-10-11T12:56:57.855Z,101289.95
2022-10-11T12:59:28.884Z,101290.27
2022-10-11T13:02:01.459Z,101286.94
2022-10-11T13:04:34.462Z,101289.48
2022-10-11T13:07:14.236Z,101290.98
2022-10-11T13:09:49.089Z,101292.24
2022-10-11T13:12:21.666Z,101289.90
2022-10-11T13:14:57.171Z,101291.50
2022-10-11T13:17:38.050Z,101292.91
2022-10-11T13:20:18.462Z,101293.63
2022-10-11T13:22:51.556Z,101293.64
2022-10-11T13:25:24.928Z,101290.30
2022-10-11T13:27:58.443Z,101291.82
2022-10-11T13:30:31.877Z,101288.88
2022-10-11T13:33:07.139Z,101290.44
2022-10-11T13:35:39.470Z,101286.99
2022-10-11T13:38:16.750Z,101288.80
2022-10-11T13:40:50.822Z,101288.71
2022-10-11T13:43:26.020Z,101287.16
2022-10-11T13:45:59.059Z,101294.02
2022-10-11T13:48:32.144Z,101295.30
2022-10-11T13:51:13.414Z,101290.52
2022-10-11T13:54:01.160Z,101290.63
2022-10-11T13:56:33.882Z,101285.45
2022-10-11T13:59:05.494Z,101283.07
2022-10-11T14:01:44.849Z,101280.52
2022-10-11T14:04:17.717Z,101282.91
2022-10-11T14:06:59.252Z,101287.45
2022-10-11T14:09:33.023Z,101287.96
2022-10-11T14:12:30.967Z,101287.67
2022-10-11T14:15:03.072Z,101289.90
2022-10-11T14:17:42.119Z,101292.06
2022-10-11T14:20:22.241Z,101287.34
2022-10-11T14:22:54.981Z,101283.30
2022-10-11T14:25:25.658Z,101284.80
2022-10-11T14:27:56.410Z,101284.30
2022-10-11T14:30:28.453Z,101282.42
2022-10-11T14:33:01.770Z,101285.52
2022-10-11T14:35:33.758Z,101286.20
2022-10-11T14:38:04.450Z,101282.27
2022-10-11T14:40:35.910Z,101282.81
2022-10-11T14:43:06.578Z,101286.90
2022-10-11T14:45:37.233Z,101285.55
2022-10-11T14:48:08.464Z,101283.92
2022-10-11T14:50:43.183Z,101280.91
2022-10-11T14:53:15.325Z,101286.42
2022-10-11T14:55:46.531Z,101281.85
2022-10-11T14:58:21.095Z,101290.10
2022-10-11T15:00:51.770Z,101286.73
2022-10-11T15:03:22.523Z,101286.95
2022-10-11T15:05:53.106Z,101287.75
2022-10-11T15:08:23.769Z,101286.29
2022-10-11T15:10:54.599Z,101284.21
2022-10-11T15:13:25.586Z,101282.97
2022-10-11T15:15:56.272Z,101284.40
2022-10-11T15:18:26.888Z,101283.23
2022-10-11T15:20:58.253Z,101284.26
2022-10-11T15:23:29.363Z,101282.96
2022-10-11T15:26:00.236Z,101283.30
2022-10-11T15:28:33.207Z,101284.81
2022-10-11T15:31:04.114Z,101286.09
2022-10-11T15:33:35.043Z,101288.72
2022-10-11T15:36:07.007Z,101286.85
2022-10-11T15:38:38.035Z,101289.54
2022-10-11T15:41:09.482Z,101289.41
2022-10-11T15:43:40.409Z,101291.59
2022-10-11T15:46:13.946Z,101292.61
2022-10-11T15:48:44.969Z,101296.15
2022-10-11T15:51:15.880Z,101293.73
2022-10-11T15:53:46.533Z,101295.89
2022-10-11T15:56:19.724Z,101298.42
2022-10-11T15:58:50.380Z,101297.73
2022-10-11T16:01:22.573Z,101299.05
2022-10-11T16:03:53.277Z,101297.33
2022-10-11T16:06:24.456Z,101299.09
2022-10-11T16:08:55.511Z,101302.39
2022-10-11T16:11:26.227Z,101302.79
2022-10-11T16:13:57.140Z,101302.45
2022-10-11T16:16:27.863Z,101300.85
2022-10-11T16:18:58.478Z,101308.48
2022-10-11T16:21:29.069Z,101311.73
2022-10-11T16:23:59.670Z,101311.98
2022-10-11T16:26:30.299Z,101312.38
2022-10-11T16:29:01.177Z,101311.98
2022-10-11T16:31:32.017Z,101316.39
2022-10-11T16:34:02.727Z,101315.09
2022-10-11T16:36:35.956Z,101317.77
2022-10-11T16:39:09.716Z,101321.69
2022-10-11T16:41:40.644Z,101324.16
2022-10-11T16:44:15.042Z,101326.20
2022-10-11T16:46:48.200Z,101326.48
2022-10-11T16:49:22.173Z,101328.95
2022-10-11T16:51:53.816Z,101330.08
2022-10-11T16:54:24.997Z,101333.02
2022-10-11T16:56:55.914Z,101336.38
2022-10-11T16:59:26.770Z,101336.74
2022-10-11T17:01:57.910Z,101341.11
2022-10-11T17:04:28.839Z,101344.17
2022-10-11T17:06:59.553Z,101343.52
2022-10-11T17:09:30.434Z,101345.17
2022-10-11T17:12:01.480Z,101345.34
2022-10-11T17:14:32.132Z,101347.54
2022-10-11T17:17:02.927Z,101351.38
2022-10-11T17:19:34.259Z,101349.94
2022-10-11T17:22:04.894Z,101349.32
2022-10-11T17:24:37.406Z,101348.14
2022-10-11T17:27:07.017Z,101347.40
2022-10-11T17:29:38.227Z,101347.52
2022-10-11T17:32:09.548Z,101349.88
2022-10-11T17:34:40.347Z,101352.80
2022-10-11T17:37:12.598Z,101346.52
2022-10-11T17:39:43.260Z,101350.05
2022-10-11T17:42:14.051Z,101352.95
2022-10-11T17:44:44.706Z,101353.42
2022-10-11T17:47:15.680Z,101350.06
2022-10-11T17:49:46.487Z,101355.38
2022-10-11T17:52:17.212Z,101356.87
2022-10-11T17:54:48.113Z,101355.15
2022-10-11T17:57:19.194Z,101362.61
2022-10-11T17:59:49.958Z,101359.73
2022-10-11T18:02:21.161Z,101359.06
2022-10-11T18:04:52.028Z,101361.36
2022-10-11T18:07:24.040Z,101361.80
2022-10-11T18:09:54.734Z,101356.92
2022-10-11T18:12:26.066Z,101362.58
2022-10-11T18:14:57.004Z,101356.42
2022-10-11T18:17:28.385Z,101359.52
2022-10-11T18:19:59.050Z,101362.15
2022-10-11T18:22:29.660Z,101358.85
2022-10-11T18:25:00.416Z,101356.12
2022-10-11T18:27:31.916Z,101360.77
2022-10-11T18:30:02.656Z,101361.97
2022-10-11T18:32:33.337Z,101357.81
2022-10-11T18:35:04.279Z,101360.55
2022-10-11T18:37:35.132Z,101360.01
2022-10-11T18:40:06.935Z,101360.14
2022-10-11T18:42:37.684Z,101358.10
2022-10-11T18:45:11.001Z,101354.55
2022-10-11T18:47:41.576Z,101358.42
2022-10-11T18:50:13.196Z,101360.80
2022-10-11T18:52:44.747Z,101366.13
2022-10-11T18:55:15.827Z,101363.45
2022-10-11T18:57:46.396Z,101358.84
2022-10-11T19:00:39.714Z,101361.61
2022-10-11T19:03:09.130Z,101358.37
2022-10-11T19:05:42.348Z,101351.73
2022-10-11T19:08:13.075Z,101348.04
2022-10-11T19:10:43.858Z,101349.63
2022-10-11T19:13:14.622Z,101350.16
2022-10-11T19:15:45.483Z,101353.14
2022-10-11T19:18:20.359Z,101356.73
2022-10-11T19:20:51.226Z,101361.05
2022-10-11T19:23:23.719Z,101360.67
2022-10-11T19:25:59.118Z,101358.50
2022-10-11T19:28:30.439Z,101356.64
2022-10-11T19:31:09.700Z,101359.39
2022-10-11T19:33:40.727Z,101359.20
2022-10-11T19:36:14.794Z,101361.61
2022-10-11T19:38:48.509Z,101362.82
2022-10-11T19:41:20.844Z,101360.75
2022-10-11T19:43:51.625Z,101364.30
2022-10-11T19:46:44.360Z,101365.24
2022-10-11T19:49:17.461Z,101367.61
2022-10-11T19:51:48.402Z,101366.77
2022-10-11T19:54:19.865Z,101367.46
2022-10-11T19:56:50.728Z,101367.34
2022-10-11T19:59:21.467Z,101371.28
2022-10-11T20:01:53.404Z,101376.30
2022-10-11T20:07:13.466Z,101373.70
2022-10-11T20:09:44.286Z,101375.16
2022-10-11T20:12:14.977Z,101370.92
2022-10-11T20:14:45.754Z,101372.04
2022-10-11T20:17:16.459Z,101369.50
2022-10-11T20:19:47.308Z,101376.11
2022-10-11T20:22:18.050Z,101374.87
2022-10-11T20:24:48.676Z,101377.10
2022-10-11T20:27:19.393Z,101380.66
2022-10-11T20:29:50.115Z,101382.61
2022-10-11T20:32:20.867Z,101385.17
2022-10-11T20:34:51.683Z,101386.07
2022-10-11T20:37:22.276Z,101383.77
2022-10-11T20:39:52.883Z,101388.08
2022-10-11T20:42:27.589Z,101389.98
2022-10-11T20:45:00.330Z,101389.05
2022-10-11T20:47:31.412Z,101389.14
2022-10-11T20:50:02.445Z,101388.58
2022-10-11T20:52:33.455Z,101388.91
2022-10-11T20:55:04.307Z,101389.44
2022-10-11T20:57:35.311Z,101388.91
2022-10-11T21:00:07.749Z,101388.39
2022-10-11T21:02:38.858Z,101391.55
2022-10-11T21:05:11.393Z,101391.72
2022-10-11T21:07:41.996Z,101389.30
2022-10-11T21:10:12.887Z,101389.48
2022-10-11T21:12:43.495Z,101396.70
2022-10-11T21:15:14.378Z,101391.70
2022-10-11T21:17:45.227Z,101394.71
2022-10-11T21:20:16.394Z,101398.05
2022-10-11T21:22:46.989Z,101395.17
2022-10-11T21:25:18.158Z,101390.93
2022-10-11T21:27:48.792Z,101395.26
2022-10-11T21:30:19.789Z,101398.12
2022-10-11T21:32:50.786Z,101396.58
2022-10-11T21:35:21.451Z,101395.63
2022-10-11T21:37:52.106Z,101395.98
2022-10-11T21:40:22.748Z,101395.80
2022-10-11T21:42:53.528Z,101401.36
2022-10-11T21:45:24.567Z,101400.90
2022-10-11T21:47:55.181Z,101396.89
2022-10-11T21:50:25.751Z,101394.21
2022-10-11T21:52:56.685Z,101393.38
2022-10-11T21:55:29.583Z,101391.86
2022-10-11T21:58:00.254Z,101389.44
2022-10-11T22:00:30.844Z,101392.30
2022-10-11T22:03:01.673Z,101393.94
2022-10-11T22:05:32.368Z,101397.00
2022-10-11T22:08:02.980Z,101391.01
2022-10-11T22:10:35.078Z,101393.74
2022-10-11T22:13:05.946Z,101395.75
2022-10-11T22:15:38.010Z,101392.91
2022-10-11T22:18:09.056Z,101397.48
2022-10-11T22:20:39.904Z,101399.16
2022-10-11T22:23:10.647Z,101397.64
2022-10-11T22:25:41.962Z,101401.39
2022-10-11T22:28:12.660Z,101401.63
2022-10-11T22:30:43.875Z,101402.84
2022-10-11T22:33:14.622Z,101405.75
2022-10-11T22:35:45.263Z,101412.44
2022-10-11T22:38:15.872Z,101410.95
2022-10-11T22:40:46.502Z,101410.02
2022-10-11T22:43:17.223Z,101411.01
2022-10-11T22:45:48.050Z,101409.63
2022-10-11T22:48:18.701Z,101408.45
2022-10-11T22:50:49.577Z,101414.88
2022-10-11T22:53:20.385Z,101406.08
2022-10-11T22:55:51.020Z,101409.99
2022-10-11T22:58:21.887Z,101414.89
2022-10-11T23:00:52.535Z,101415.31
2022-10-11T23:03:23.250Z,101413.90
2022-10-11T23:06:00.619Z,101413.98
2022-10-11T23:08:31.409Z,101413.14
2022-10-11T23:11:07.056Z,101415.73
2022-10-11T23:13:38.195Z,101414.92
2022-10-11T23:16:13.503Z,101413.70
2022-10-11T23:18:44.955Z,101412.81
2022-10-11T23:21:15.643Z,101416.63
2022-10-11T23:23:46.192Z,101416.70
2022-10-11T23:26:17.966Z,101417.54
2022-10-11T23:28:48.744Z,101416.87
2022-10-11T23:31:20.713Z,101415.63
2022-10-11T23:33:51.544Z,101411.13
2022-10-11T23:36:24.625Z,101412.47
2022-10-11T23:38:56.590Z,101413.12
2022-10-11T23:41:29.806Z,101407.79
2022-10-11T23:44:00.465Z,101409.02
2022-10-11T23:46:31.321Z,101408.35
2022-10-11T23:49:01.968Z,101410.95
2022-10-11T23:51:32.720Z,101411.48
2022-10-11T23:54:03.347Z,101415.12
2022-10-11T23:56:34.035Z,101414.36
2022-10-11T23:59:04.799Z,101414.45
